EPLL/LCJ METAR and TAF weather

Enter ICAO airport designator
Station Type Date Time Source
EPLL METAR 2020/02/27 14:30 UTC NOAA

EPLL 271430Z 27013KT 9999 BKN025 BKN042 04/M02 Q1001


Station Type Date Time Source
EPLL Decoded METAR 2020/02/27 14:30 UTC NOAA

Station name not available
Feb 27, 2020 - 09:30 AM EST / 2020.02.27 1430 UTC
Wind: from the W (270 degrees) at 15 MPH (13 KT):0
Visibility: greater than 7 mile(s):0
Sky conditions: mostly cloudy
Temperature: 39 F (4 C)
Dew Point: 28 F (-2 C)
Relative Humidity: 64%
Pressure (altimeter): 29.56 in. Hg (1001 hPa)
ob: EPLL 271430Z 27013KT 9999 BKN025 BKN042 04/M02 Q1001
cycle: 14

Station Type Date Time Source
EPLL TAF 2020/02/27 12:00 UTC NOAA

TAF EPLL 271130Z 2712/2812 27014KT 9999 SCT012 BKN025
TEMPO 2712/2719 -SHRASN BKN012CB PROB30
TEMPO 2712/2719 4000 SHSN BKN004 BKN012CB
BECMG 2715/2717 VRB02KT PROB40 2802/2808 3000 BR BKN007
TEMPO 2808/2812 2000 SHSN BKN004 BKN009CB
BECMG 2810/2812 28012KT

Example: see airport list